Time;durP1;ratioP1;P1;durP2;ratioP2;P2;SDS_P1;SDS_P2;PMS_P1;PMS_P2;Temp;Humidity;BMP_temperature;BMP_pressure;BME280_temperature;BME280_humidity;BME280_pressure;Samples;Min_cycle;Max_cycle;Signal;HPM_P1;HPM_P2
2023/11/23 00:04:17;;;;;;;8.13;5.50;;;15.50;73.50;;;;;;10533005;28;20121;-53
2023/11/23 00:09:19;;;;;;;8.18;6.00;;;15.50;73.00;;;;;;10533074;28;20036;-54
2023/11/23 00:14:19;;;;;;;8.88;6.15;;;15.50;72.90;;;;;;10532956;28;20028;-52
2023/11/23 00:19:20;;;;;;;10.25;6.07;;;15.40;72.90;;;;;;10533272;28;20024;-53
2023/11/23 00:24:21;;;;;;;9.50;6.60;;;15.50;73.00;;;;;;10532852;28;20029;-49
2023/11/23 00:29:21;;;;;;;8.75;5.38;;;15.40;73.00;;;;;;10539370;28;20024;-49
2023/11/23 00:34:22;;;;;;;7.70;5.80;;;15.50;73.00;;;;;;10566627;28;20554;-52
2023/11/23 00:39:22;;;;;;;7.55;5.18;;;15.40;73.10;;;;;;10532832;28;20024;-51
2023/11/23 00:44:23;;;;;;;7.20;5.55;;;15.40;73.10;;;;;;10514080;28;20110;-52
2023/11/23 00:49:24;;;;;;;8.40;6.78;;;15.40;73.10;;;;;;10532499;28;20454;-52
2023/11/23 00:54:25;;;;;;;9.15;5.00;;;15.40;73.10;;;;;;10531938;28;20062;-53
2023/11/23 00:59:25;;;;;;;8.25;6.28;;;15.40;73.10;;;;;;10533690;28;20475;-51
2023/11/23 01:04:27;;;;;;;9.43;5.75;;;15.40;73.10;;;;;;10540087;28;20031;-52
2023/11/23 01:09:28;;;;;;;9.38;5.40;;;15.40;73.10;;;;;;10539613;28;20027;-53
2023/11/23 01:14:28;;;;;;;8.70;5.20;;;15.30;73.10;;;;;;10539800;28;20469;-53
2023/11/23 01:19:29;;;;;;;7.72;5.93;;;15.30;73.20;;;;;;10539464;28;20016;-51
2023/11/23 01:24:29;;;;;;;7.55;5.90;;;15.30;73.20;;;;;;10539169;28;20028;-49
2023/11/23 01:29:30;;;;;;;8.52;5.53;;;15.30;73.20;;;;;;10547004;28;20385;-49
2023/11/23 01:34:30;;;;;;;6.78;4.55;;;15.30;73.30;;;;;;10571596;28;20445;-48
2023/11/23 01:39:31;;;;;;;8.40;5.35;;;15.30;73.30;;;;;;10538939;28;20020;-52
2023/11/23 01:44:32;;;;;;;8.18;5.60;;;15.30;73.30;;;;;;10538112;28;20416;-51
2023/11/23 01:49:35;;;;;;;5.85;4.30;;;15.30;73.30;;;;;;10538406;28;20494;-52
2023/11/23 01:54:36;;;;;;;8.52;5.38;;;15.30;73.30;;;;;;10537720;28;20521;-51
2023/11/23 01:59:37;;;;;;;6.68;5.00;;;15.30;73.30;;;;;;10566847;28;20085;-49
2023/11/23 02:04:37;;;;;;;6.93;5.30;;;15.30;73.40;;;;;;10579635;28;20387;-51
2023/11/23 02:09:38;;;;;;;7.25;5.70;;;15.30;73.30;;;;;;10551890;28;20028;-50
2023/11/23 02:14:38;;;;;;;7.07;5.30;;;15.20;73.30;;;;;;10535933;28;20466;-51
2023/11/23 02:19:39;;;;;;;7.65;5.72;;;15.30;73.40;;;;;;10537289;28;20443;-49
2023/11/23 02:24:41;;;;;;;7.43;5.63;;;15.30;73.50;;;;;;10536380;28;20085;-51
2023/11/23 02:29:42;;;;;;;7.32;4.80;;;15.20;73.30;;;;;;10545969;28;20031;-50
2023/11/23 02:34:42;;;;;;;6.85;5.80;;;15.20;73.30;;;;;;10540540;28;20044;-52
2023/11/23 02:39:43;;;;;;;6.93;4.45;;;15.20;73.40;;;;;;10575695;28;20107;-51
2023/11/23 02:44:44;;;;;;;7.75;5.20;;;15.20;73.50;;;;;;10559697;28;20650;-50
2023/11/23 02:49:44;;;;;;;7.68;5.28;;;15.20;73.40;;;;;;10578091;28;20378;-50
2023/11/23 02:54:45;;;;;;;6.65;4.70;;;15.20;73.40;;;;;;10577537;28;20122;-54
2023/11/23 02:59:45;;;;;;;7.28;5.10;;;15.20;73.50;;;;;;10577601;28;20023;-52
2023/11/23 03:04:46;;;;;;;7.18;5.47;;;15.20;73.50;;;;;;10577159;28;20539;-53
2023/11/23 03:09:46;;;;;;;6.07;5.15;;;15.20;73.50;;;;;;10548342;28;20111;-53
2023/11/23 03:14:47;;;;;;;9.30;5.75;;;15.20;73.50;;;;;;10534388;28;20032;-51
2023/11/23 03:19:48;;;;;;;6.60;4.65;;;15.20;73.50;;;;;;10534759;28;20024;-50
2023/11/23 03:24:51;;;;;;;8.18;4.85;;;15.20;73.50;;;;;;10544107;28;20035;-50
2023/11/23 03:29:52;;;;;;;6.30;4.55;;;15.10;73.60;;;;;;10566062;28;20099;-49
2023/11/23 03:34:52;;;;;;;5.30;4.00;;;15.10;73.40;;;;;;10533778;28;20036;-49
2023/11/23 03:39:57;;;;;;;6.28;4.28;;;15.10;73.50;;;;;;10534237;28;20657;-47
2023/11/23 03:44:58;;;;;;;6.40;4.22;;;15.10;73.50;;;;;;10533581;28;20028;-47
2023/11/23 03:49:59;;;;;;;5.68;3.95;;;15.10;73.60;;;;;;10533759;28;20081;-52
2023/11/23 03:54:59;;;;;;;6.97;4.55;;;15.20;73.60;;;;;;10533367;28;20032;-51
2023/11/23 04:00:00;;;;;;;8.55;4.45;;;15.10;73.60;;;;;;10538542;28;20077;-52
2023/11/23 04:05:01;;;;;;;5.95;4.30;;;15.10;73.60;;;;;;10541914;28;20032;-53
2023/11/23 04:10:03;;;;;;;6.38;4.45;;;15.10;73.60;;;;;;10521219;28;20040;-51
2023/11/23 04:15:05;;;;;;;10.02;4.05;;;15.10;73.60;;;;;;10532623;28;20027;-53
2023/11/23 04:20:06;;;;;;;6.68;4.50;;;15.20;74.40;;;;;;10518333;28;20031;-53
2023/11/23 04:25:07;;;;;;;7.20;3.92;;;15.20;74.50;;;;;;10515033;28;20233;-50
2023/11/23 04:30:08;;;;;;;5.72;4.07;;;15.20;74.40;;;;;;10515067;28;20138;-50
2023/11/23 04:35:10;;;;;;;6.03;4.20;;;15.30;74.50;;;;;;10534091;28;20032;-48
2023/11/23 04:40:11;;;;;;;5.85;3.95;;;15.20;74.40;;;;;;10537289;28;20031;-53
2023/11/23 04:45:12;;;;;;;6.40;4.38;;;15.20;74.10;;;;;;10540431;28;20028;-51
2023/11/23 04:50:13;;;;;;;5.68;3.80;;;15.20;73.90;;;;;;10540746;28;20138;-52
2023/11/23 04:55:14;;;;;;;5.80;4.22;;;15.20;74.00;;;;;;10540616;28;20024;-50
2023/11/23 05:00:15;;;;;;;6.55;4.32;;;15.10;74.00;;;;;;10556444;28;20015;-51
2023/11/23 05:05:15;;;;;;;5.85;3.60;;;15.10;74.00;;;;;;10532814;28;20032;-53
2023/11/23 05:10:16;;;;;;;4.60;3.22;;;15.10;74.00;;;;;;10529014;28;20732;-51
2023/11/23 05:15:17;;;;;;;4.00;3.15;;;15.10;74.10;;;;;;10558359;28;20030;-50
2023/11/23 05:20:18;;;;;;;5.15;3.55;;;15.10;74.00;;;;;;10560167;28;20046;-50
2023/11/23 05:25:19;;;;;;;4.97;3.45;;;15.10;73.90;;;;;;10548265;28;20042;-51
2023/11/23 05:30:20;;;;;;;6.28;4.65;;;15.10;73.90;;;;;;10548847;28;20028;-52
2023/11/23 05:35:21;;;;;;;5.80;3.70;;;15.10;73.80;;;;;;10564718;28;20072;-53
2023/11/23 05:40:21;;;;;;;4.90;3.10;;;15.00;73.80;;;;;;10538747;28;20483;-52
2023/11/23 05:45:22;;;;;;;5.05;3.40;;;15.10;73.70;;;;;;10569956;28;20023;-51
2023/11/23 05:50:23;;;;;;;4.18;2.78;;;15.20;73.40;;;;;;10579711;28;20455;-50
2023/11/23 05:55:24;;;;;;;6.18;3.33;;;15.40;72.70;;;;;;10580192;28;20030;-51
2023/11/23 06:00:25;;;;;;;5.07;3.47;;;15.60;72.00;;;;;;10580021;28;20047;-52
2023/11/23 06:05:25;;;;;;;6.10;3.05;;;15.80;71.50;;;;;;10556815;28;20399;-51
2023/11/23 06:10:26;;;;;;;6.93;2.83;;;16.00;71.20;;;;;;10537271;28;20035;-51
2023/11/23 06:15:27;;;;;;;7.68;3.03;;;16.20;71.10;;;;;;10537591;28;20028;-51
2023/11/23 06:20:28;;;;;;;6.13;2.70;;;16.30;71.50;;;;;;10536533;28;20036;-53
2023/11/23 06:25:28;;;;;;;10.93;3.95;;;16.40;70.90;;;;;;10536800;28;20422;-53
2023/11/23 06:30:29;;;;;;;9.13;3.65;;;16.50;70.60;;;;;;10538203;28;20475;-52
2023/11/23 06:35:29;;;;;;;16.65;3.42;;;16.60;70.30;;;;;;10561494;28;20066;-53
2023/11/23 06:40:30;;;;;;;8.68;3.58;;;16.70;70.30;;;;;;10556341;28;20108;-54
2023/11/23 06:45:31;;;;;;;10.10;3.22;;;16.80;69.80;;;;;;10561235;28;20463;-55
2023/11/23 06:50:32;;;;;;;7.57;2.80;;;16.80;70.50;;;;;;10570915;28;20107;-54
2023/11/23 06:55:33;;;;;;;7.50;2.85;;;16.80;69.50;;;;;;10535833;28;20056;-52
2023/11/23 07:00:33;;;;;;;9.68;3.38;;;17.00;69.40;;;;;;10548901;28;20119;-55
2023/11/23 07:05:34;;;;;;;6.07;2.58;;;17.00;69.10;;;;;;10532397;28;20024;-55
2023/11/23 07:10:36;;;;;;;8.70;2.60;;;17.20;68.80;;;;;;10532922;28;20054;-51
2023/11/23 07:15:36;;;;;;;7.15;2.92;;;17.20;69.00;;;;;;10534499;28;20486;-52
2023/11/23 07:20:38;;;;;;;8.40;3.05;;;17.20;68.80;;;;;;10533778;28;20031;-49
2023/11/23 07:25:43;;;;;;;9.05;2.40;;;17.10;69.10;;;;;;10516171;28;20024;-52
2023/11/23 07:30:44;;;;;;;6.95;2.83;;;16.90;69.40;;;;;;10538260;28;20028;-50
2023/11/23 07:35:46;;;;;;;4.30;2.08;;;16.90;69.80;;;;;;10556023;28;20089;-52
2023/11/23 07:40:47;;;;;;;11.98;3.05;;;16.70;70.10;;;;;;10533836;28;20077;-50
2023/11/23 07:45:49;;;;;;;6.13;2.30;;;16.60;70.40;;;;;;10533393;28;20048;-52
2023/11/23 07:50:49;;;;;;;5.68;2.65;;;16.50;70.60;;;;;;10533165;28;20032;-54
2023/11/23 07:55:50;;;;;;;6.60;2.28;;;16.40;70.90;;;;;;10532835;28;20069;-53
2023/11/23 08:00:50;;;;;;;3.78;1.85;;;16.40;71.20;;;;;;10532988;28;20031;-53
2023/11/23 08:05:51;;;;;;;7.40;2.40;;;16.30;71.50;;;;;;10514943;28;20056;-52
2023/11/23 08:10:52;;;;;;;5.95;2.38;;;16.20;71.80;;;;;;10531536;28;20103;-54
2023/11/23 08:15:53;;;;;;;5.15;3.42;;;16.10;71.90;;;;;;10533227;28;20032;-51
2023/11/23 08:20:54;;;;;;;4.07;2.70;;;16.00;72.10;;;;;;10531985;28;20016;-50
2023/11/23 08:25:55;;;;;;;3.45;2.38;;;16.00;72.20;;;;;;10532837;28;20016;-50
2023/11/23 08:30:55;;;;;;;5.88;2.33;;;15.90;72.20;;;;;;10550904;28;20065;-48
2023/11/23 08:35:56;;;;;;;5.63;3.05;;;15.90;72.40;;;;;;10554427;28;20067;-50
2023/11/23 08:40:56;;;;;;;4.10;2.50;;;15.90;72.50;;;;;;10532068;28;20514;-53
2023/11/23 08:45:57;;;;;;;8.07;2.40;;;15.80;72.50;;;;;;10532840;28;20498;-50
2023/11/23 08:50:57;;;;;;;4.32;2.10;;;15.80;72.60;;;;;;10532366;28;20020;-52
2023/11/23 08:55:58;;;;;;;6.80;2.85;;;15.80;72.60;;;;;;10532371;28;20024;-55
2023/11/23 09:00:59;;;;;;;9.43;2.85;;;15.80;72.80;;;;;;10532150;28;20030;-53
2023/11/23 09:06:00;;;;;;;5.38;2.10;;;15.70;72.80;;;;;;10532202;28;20545;-52
2023/11/23 09:11:00;;;;;;;3.08;1.70;;;15.70;72.80;;;;;;10532003;28;20028;-51
2023/11/23 09:16:02;;;;;;;4.32;2.55;;;15.70;72.90;;;;;;10532231;28;20082;-51
2023/11/23 09:21:03;;;;;;;4.97;2.30;;;15.60;72.90;;;;;;10533552;28;20102;-48
2023/11/23 09:26:05;;;;;;;4.95;1.90;;;15.70;73.00;;;;;;10539311;28;20414;-49
2023/11/23 09:31:08;;;;;;;4.65;1.85;;;15.60;73.10;;;;;;10559387;28;20019;-52
2023/11/23 09:36:11;;;;;;;4.93;2.03;;;15.60;73.20;;;;;;10558492;28;20059;-52
2023/11/23 09:41:18;;;;;;;4.88;2.28;;;15.60;73.20;;;;;;10538441;28;20060;-53
2023/11/23 09:46:19;;;;;;;3.55;2.22;;;15.60;73.20;;;;;;10539280;28;20505;-52
2023/11/23 09:51:20;;;;;;;6.95;3.08;;;15.60;73.30;;;;;;10519754;28;20391;-54
2023/11/23 09:56:21;;;;;;;3.63;2.20;;;15.60;73.30;;;;;;10548591;28;20024;-53
2023/11/23 10:01:26;;;;;;;4.32;1.80;;;15.50;73.30;;;;;;10579219;28;20020;-53
2023/11/23 10:06:27;;;;;;;3.92;2.20;;;15.50;73.30;;;;;;10578910;28;20020;-53
2023/11/23 10:11:29;;;;;;;3.75;1.92;;;15.50;73.40;;;;;;10518910;28;20114;-53
2023/11/23 10:16:32;;;;;;;4.03;2.10;;;15.50;73.40;;;;;;10536847;28;20031;-52
2023/11/23 10:21:34;;;;;;;4.63;2.70;;;15.50;73.30;;;;;;10536662;28;20028;-52
2023/11/23 10:26:35;;;;;;;3.97;2.55;;;15.50;73.40;;;;;;10518594;28;20447;-53
2023/11/23 10:31:36;;;;;;;3.97;2.05;;;15.50;73.30;;;;;;10560226;28;20122;-54
2023/11/23 10:36:39;;;;;;;4.88;1.85;;;15.50;73.30;;;;;;10533887;28;20027;-52
2023/11/23 10:41:41;;;;;;;6.68;2.60;;;15.50;73.40;;;;;;10535781;28;20103;-53
2023/11/23 10:46:42;;;;;;;3.17;1.77;;;15.50;73.40;;;;;;10536145;28;20042;-53
2023/11/23 10:51:44;;;;;;;3.38;1.92;;;15.50;73.50;;;;;;10517397;28;20035;-53
2023/11/23 10:56:45;;;;;;;2.88;2.33;;;15.40;73.60;;;;;;10522949;28;20031;-53
2023/11/23 11:01:47;;;;;;;3.03;1.70;;;15.40;73.60;;;;;;10559007;28;20084;-51
2023/11/23 11:06:50;;;;;;;3.25;1.70;;;15.40;73.60;;;;;;10555905;28;20574;-51
2023/11/23 11:11:55;;;;;;;3.17;1.70;;;15.40;73.70;;;;;;10534464;28;20020;-52
2023/11/23 11:17:04;;;;;;;4.22;2.00;;;15.40;73.70;;;;;;10534796;28;20071;-51
2023/11/23 11:22:12;;;;;;;2.92;2.03;;;15.40;73.60;;;;;;10534653;28;20024;-53
2023/11/23 11:27:12;;;;;;;4.63;2.33;;;15.40;73.70;;;;;;10534703;28;20028;-51
2023/11/23 11:32:14;;;;;;;3.15;1.85;;;15.40;73.70;;;;;;10551009;28;20144;-54
2023/11/23 11:37:15;;;;;;;2.78;1.83;;;15.40;73.70;;;;;;10544277;28;20028;-51
2023/11/23 11:42:16;;;;;;;3.67;1.80;;;15.40;73.70;;;;;;10533420;28;20141;-49
2023/11/23 11:47:17;;;;;;;2.45;1.55;;;15.40;73.90;;;;;;10533897;28;20426;-50
2023/11/23 11:52:18;;;;;;;3.13;1.95;;;15.40;73.90;;;;;;10533300;28;20089;-54
2023/11/23 11:57:19;;;;;;;2.38;1.83;;;15.40;74.50;;;;;;10515607;28;20024;-49
2023/11/23 12:02:19;;;;;;;1.90;1.48;;;15.40;73.80;;;;;;10533178;28;20024;-51
2023/11/23 12:07:20;;;;;;;2.53;1.63;;;15.40;73.80;;;;;;10515115;28;20028;-52
2023/11/23 12:12:21;;;;;;;3.97;2.03;;;15.30;73.80;;;;;;10532948;28;20020;-53
2023/11/23 12:17:22;;;;;;;3.67;2.30;;;15.30;73.90;;;;;;10532907;28;20076;-49
2023/11/23 12:22:23;;;;;;;2.22;1.30;;;15.30;73.80;;;;;;10532805;28;20098;-53
2023/11/23 12:27:25;;;;;;;3.22;1.60;;;15.30;73.90;;;;;;10533013;28;20024;-54
2023/11/23 12:32:25;;;;;;;3.53;1.80;;;15.30;74.00;;;;;;10564262;28;20035;-53
2023/11/23 12:37:26;;;;;;;3.97;2.00;;;15.30;73.90;;;;;;10561360;28;20016;-49
2023/11/23 12:42:27;;;;;;;2.70;1.60;;;15.30;73.90;;;;;;10556191;28;20554;-50
2023/11/23 12:47:27;;;;;;;3.90;1.70;;;15.30;73.90;;;;;;10574699;28;20027;-53
2023/11/23 12:52:32;;;;;;;2.55;1.70;;;15.30;74.00;;;;;;10574085;28;20034;-50
2023/11/23 12:57:33;;;;;;;2.75;1.88;;;15.30;74.00;;;;;;10579183;28;20032;-49
2023/11/23 13:02:34;;;;;;;2.35;1.40;;;15.30;74.00;;;;;;10582018;28;20026;-53
2023/11/23 13:07:39;;;;;;;3.05;1.83;;;15.30;73.90;;;;;;10572922;28;20038;-51
2023/11/23 13:12:39;;;;;;;3.45;1.33;;;15.30;74.00;;;;;;10569540;28;20399;-53
2023/11/23 13:17:41;;;;;;;3.08;1.38;;;15.30;74.00;;;;;;10581844;28;20106;-53
2023/11/23 13:22:41;;;;;;;3.00;1.60;;;15.20;74.00;;;;;;10581688;28;20043;-51
2023/11/23 13:27:42;;;;;;;2.35;1.40;;;15.20;74.00;;;;;;10581803;28;20027;-52
2023/11/23 13:32:43;;;;;;;4.15;2.08;;;15.30;74.00;;;;;;10545895;28;20047;-53
2023/11/23 13:37:45;;;;;;;2.65;1.42;;;15.30;74.10;;;;;;10520457;28;20451;-51
2023/11/23 13:42:46;;;;;;;2.55;1.50;;;15.30;74.10;;;;;;10520631;28;20051;-48
2023/11/23 13:47:47;;;;;;;2.55;1.45;;;15.20;74.10;;;;;;10538495;28;20040;-49
2023/11/23 13:52:48;;;;;;;3.45;1.38;;;15.20;74.10;;;;;;10538151;28;20035;-49
2023/11/23 13:57:49;;;;;;;4.75;1.95;;;15.20;74.10;;;;;;10537975;28;20040;-53
2023/11/23 14:02:53;;;;;;;3.60;2.03;;;15.20;74.10;;;;;;10537610;28;20028;-50
2023/11/23 14:07:53;;;;;;;1.98;1.20;;;15.20;74.10;;;;;;10536948;28;20034;-53
2023/11/23 14:12:56;;;;;;;3.10;1.50;;;15.20;74.10;;;;;;10537540;28;20027;-52
2023/11/23 14:17:57;;;;;;;2.40;1.38;;;15.20;74.20;;;;;;10537672;28;20115;-54
2023/11/23 14:22:57;;;;;;;2.78;1.40;;;15.20;74.20;;;;;;10536902;28;20024;-52
2023/11/23 14:27:59;;;;;;;2.47;1.58;;;15.20;74.20;;;;;;10537030;28;20791;-52
2023/11/23 14:33:00;;;;;;;2.25;1.45;;;15.20;74.20;;;;;;10573108;28;20120;-51
2023/11/23 14:38:02;;;;;;;4.20;1.83;;;15.20;74.30;;;;;;10540394;28;20119;-51
2023/11/23 14:43:02;;;;;;;4.20;2.33;;;15.20;74.20;;;;;;10536381;28;20636;-49
2023/11/23 14:48:04;;;;;;;4.72;1.77;;;15.20;74.20;;;;;;10536501;28;20039;-50
2023/11/23 14:53:05;;;;;;;1.95;1.48;;;15.20;74.20;;;;;;10535460;28;20483;-52
2023/11/23 14:58:06;;;;;;;2.70;1.38;;;15.20;74.20;;;;;;10535368;28;20028;-52
2023/11/23 15:03:07;;;;;;;2.55;1.50;;;15.20;74.30;;;;;;10526875;28;20020;-54
2023/11/23 15:08:08;;;;;;;4.15;1.65;;;15.20;74.10;;;;;;10534170;28;20028;-54
2023/11/23 15:13:08;;;;;;;2.78;1.35;;;15.20;74.20;;;;;;10541117;28;20024;-53
2023/11/23 15:18:09;;;;;;;3.13;1.75;;;15.20;74.20;;;;;;10526116;28;20032;-53
2023/11/23 15:23:10;;;;;;;2.72;1.40;;;15.20;74.40;;;;;;10521503;28;20364;-48
2023/11/23 15:28:10;;;;;;;2.53;1.50;;;15.20;74.20;;;;;;10527717;28;20127;-53
2023/11/23 15:33:11;;;;;;;2.92;1.58;;;15.30;73.70;;;;;;10553421;28;20056;-54
2023/11/23 15:38:12;;;;;;;3.83;1.40;;;15.60;72.90;;;;;;10546333;28;20028;-53
2023/11/23 15:43:12;;;;;;;2.65;1.70;;;15.80;71.80;;;;;;10538445;28;20094;-55
2023/11/23 15:48:13;;;;;;;3.88;1.38;;;16.10;71.10;;;;;;10534755;28;20107;-53
2023/11/23 15:53:14;;;;;;;2.25;0.90;;;16.30;70.60;;;;;;10534149;28;20493;-51
2023/11/23 15:58:14;;;;;;;3.75;1.40;;;16.50;70.10;;;;;;10533551;28;20031;-51
2023/11/23 16:03:15;;;;;;;2.42;1.25;;;16.50;69.70;;;;;;10533606;28;20099;-54
2023/11/23 16:08:16;;;;;;;4.38;1.52;;;16.70;69.30;;;;;;10550389;28;20054;-52
2023/11/23 16:13:19;;;;;;;2.80;1.98;;;16.80;69.10;;;;;;10533148;28;20020;-53
2023/11/23 16:18:20;;;;;;;1.95;0.73;;;16.90;68.80;;;;;;10532805;28;20039;-54
2023/11/23 16:23:20;;;;;;;1.77;0.90;;;17.00;68.40;;;;;;10532787;28;20123;-55
2023/11/23 16:28:21;;;;;;;3.08;1.23;;;17.10;68.10;;;;;;10532448;28;20036;-53
2023/11/23 16:33:21;;;;;;;8.07;1.20;;;17.10;68.40;;;;;;10555643;28;20101;-54
2023/11/23 16:38:22;;;;;;;6.57;1.00;;;17.20;68.50;;;;;;10532458;28;20050;-54
2023/11/23 16:43:23;;;;;;;4.97;1.83;;;17.30;68.30;;;;;;10533904;28;20475;-54
2023/11/23 16:48:23;;;;;;;6.43;1.67;;;17.30;68.20;;;;;;10530205;28;20031;-55
2023/11/23 16:53:24;;;;;;;10.68;2.47;;;17.40;68.00;;;;;;10520748;28;20379;-50
2023/11/23 16:58:24;;;;;;;9.32;2.33;;;17.40;68.20;;;;;;10537442;28;20119;-53
2023/11/23 17:03:25;;;;;;;7.25;1.80;;;17.40;68.20;;;;;;10518054;28;20036;-55
2023/11/23 17:08:26;;;;;;;8.52;1.83;;;17.50;68.30;;;;;;10530355;28;20715;-53
2023/11/23 17:13:26;;;;;;;10.27;2.45;;;17.50;68.30;;;;;;10507565;28;20081;-52
2023/11/23 17:18:27;;;;;;;11.98;2.33;;;17.50;70.20;;;;;;10527513;28;20469;-51
2023/11/23 17:23:28;;;;;;;9.50;2.45;;;17.60;72.00;;;;;;10539639;28;20032;-51
2023/11/23 17:28:28;;;;;;;11.25;2.20;;;17.70;71.00;;;;;;10565446;28;20473;-51
2023/11/23 17:33:29;;;;;;;11.63;2.78;;;17.80;70.80;;;;;;10580876;28;20406;-53
2023/11/23 17:38:29;;;;;;;7.60;1.95;;;17.90;70.30;;;;;;10538655;28;20069;-51
2023/11/23 17:43:30;;;;;;;7.30;2.53;;;17.90;70.40;;;;;;10541152;28;20044;-52
2023/11/23 17:48:33;;;;;;;16.48;2.40;;;18.00;69.90;;;;;;10555232;28;20387;-52
2023/11/23 17:53:34;;;;;;;9.95;2.13;;;18.10;69.60;;;;;;10554445;28;20736;-50
2023/11/23 17:58:34;;;;;;;7.18;2.33;;;18.10;69.30;;;;;;10580161;28;20027;-53
2023/11/23 18:03:35;;;;;;;11.93;2.20;;;18.10;68.90;;;;;;10580284;28;20455;-52
2023/11/23 18:08:37;;;;;;;9.25;2.10;;;18.10;68.80;;;;;;10542475;28;20071;-51
2023/11/23 18:13:38;;;;;;;13.35;2.58;;;18.10;68.80;;;;;;10537640;28;20043;-52
2023/11/23 18:18:39;;;;;;;8.60;2.25;;;18.00;68.90;;;;;;10537078;28;20042;-52
2023/11/23 18:23:40;;;;;;;4.70;1.50;;;17.90;69.10;;;;;;10537394;28;20024;-53
2023/11/23 18:28:41;;;;;;;4.18;1.35;;;17.90;69.20;;;;;;10536677;28;20042;-54
2023/11/23 18:33:42;;;;;;;7.10;2.20;;;17.80;69.10;;;;;;10577072;28;20039;-54
2023/11/23 18:38:42;;;;;;;4.90;1.65;;;17.70;69.30;;;;;;10536308;28;20086;-54
2023/11/23 18:43:43;;;;;;;5.93;2.17;;;17.70;69.40;;;;;;10536681;28;20153;-51
2023/11/23 18:48:44;;;;;;;5.65;1.90;;;17.60;69.60;;;;;;10554923;28;20027;-51
2023/11/23 18:53:44;;;;;;;5.25;1.48;;;17.60;69.70;;;;;;10577697;28;20115;-54
2023/11/23 18:58:46;;;;;;;5.80;2.28;;;17.50;69.70;;;;;;10577633;28;20359;-53
2023/11/23 19:03:48;;;;;;;6.43;2.47;;;17.60;69.70;;;;;;10547047;28;20028;-55
2023/11/23 19:08:48;;;;;;;5.30;1.63;;;17.60;69.70;;;;;;10532566;28;20103;-54
2023/11/23 19:13:49;;;;;;;7.10;1.77;;;17.50;69.70;;;;;;10516830;28;20115;-52
2023/11/23 19:18:51;;;;;;;3.80;1.00;;;17.50;69.70;;;;;;10542928;28;20107;-52
2023/11/23 19:23:52;;;;;;;3.22;1.63;;;17.50;69.90;;;;;;10544010;28;20024;-54
2023/11/23 19:28:54;;;;;;;4.57;1.80;;;17.50;69.70;;;;;;10544851;28;20369;-54
2023/11/23 19:33:55;;;;;;;4.38;2.00;;;17.50;69.90;;;;;;10540529;28;20051;-52
2023/11/23 19:38:55;;;;;;;6.32;1.73;;;17.50;69.80;;;;;;10549431;28;20031;-53
2023/11/23 19:43:56;;;;;;;3.05;1.00;;;17.40;72.90;;;;;;10554154;28;20039;-49
2023/11/23 19:48:57;;;;;;;3.35;1.05;;;17.30;73.00;;;;;;10549785;28;20024;-54
2023/11/23 19:53:59;;;;;;;3.78;1.33;;;17.50;71.30;;;;;;10549842;28;20031;-52
2023/11/23 19:58:59;;;;;;;5.43;1.60;;;17.50;70.90;;;;;;10545606;28;20032;-53
2023/11/23 20:04:00;;;;;;;4.75;1.80;;;17.40;70.90;;;;;;10563043;28;20152;-53
2023/11/23 20:09:03;;;;;;;3.65;1.30;;;17.40;71.00;;;;;;10551811;28;20020;-54
2023/11/23 20:14:04;;;;;;;4.18;1.30;;;17.30;71.10;;;;;;10515225;28;20528;-54
2023/11/23 20:19:05;;;;;;;4.85;1.20;;;17.10;71.40;;;;;;10526416;28;20032;-54
2023/11/23 20:24:06;;;;;;;2.70;1.08;;;17.10;71.70;;;;;;10516650;28;20024;-53
2023/11/23 20:29:06;;;;;;;6.43;1.38;;;17.00;72.10;;;;;;10518592;28;20020;-53
2023/11/23 20:34:07;;;;;;;3.92;1.30;;;16.90;72.10;;;;;;10569303;28;20044;-53
2023/11/23 20:39:09;;;;;;;3.20;1.20;;;16.80;72.40;;;;;;10532431;28;20135;-51
2023/11/23 20:44:09;;;;;;;4.30;1.10;;;16.70;72.60;;;;;;10532839;28;20012;-53
2023/11/23 20:49:10;;;;;;;3.97;1.23;;;16.70;72.60;;;;;;10532529;28;20099;-51
2023/11/23 20:54:11;;;;;;;5.30;1.63;;;16.60;72.70;;;;;;10532632;28;20023;-51
2023/11/23 20:59:12;;;;;;;5.18;1.35;;;16.60;72.80;;;;;;10532040;28;20021;-51
2023/11/23 21:04:14;;;;;;;2.78;1.67;;;16.50;72.90;;;;;;10532346;28;20020;-50
2023/11/23 21:09:16;;;;;;;3.50;1.38;;;16.50;73.00;;;;;;10531827;28;20119;-53
2023/11/23 21:14:17;;;;;;;2.70;1.02;;;16.50;73.00;;;;;;10532332;28;20021;-53
2023/11/23 21:19:17;;;;;;;5.38;2.78;;;16.40;73.00;;;;;;10568008;28;20098;-53
2023/11/23 21:24:18;;;;;;;7.32;1.17;;;16.40;73.00;;;;;;10581977;28;20032;-52
2023/11/23 21:29:20;;;;;;;2.08;1.08;;;16.40;73.00;;;;;;10575226;28;20032;-52
2023/11/23 21:34:20;;;;;;;3.05;1.00;;;16.30;73.00;;;;;;10539025;28;20112;-55
2023/11/23 21:39:23;;;;;;;3.78;1.35;;;16.30;73.20;;;;;;10538799;28;20077;-55
2023/11/23 21:44:24;;;;;;;3.55;1.10;;;16.30;73.20;;;;;;10538934;28;20032;-51
2023/11/23 21:49:24;;;;;;;3.25;1.10;;;16.20;73.20;;;;;;10520238;28;20039;-51
2023/11/23 21:54:25;;;;;;;5.00;1.60;;;16.20;73.20;;;;;;10538498;28;20027;-51
2023/11/23 21:59:26;;;;;;;7.75;1.77;;;16.20;73.20;;;;;;10537856;28;20020;-53
2023/11/23 22:04:27;;;;;;;5.07;1.30;;;16.10;73.10;;;;;;10552453;28;20463;-54
2023/11/23 22:09:29;;;;;;;4.70;1.55;;;16.10;73.00;;;;;;10553446;28;20117;-52
2023/11/23 22:14:30;;;;;;;3.55;1.42;;;16.10;73.10;;;;;;10537587;28;20039;-53
2023/11/23 22:19:31;;;;;;;4.45;1.80;;;16.10;73.00;;;;;;10537363;28;20042;-54
2023/11/23 22:24:33;;;;;;;2.78;1.45;;;16.10;73.00;;;;;;10537350;28;20467;-53
2023/11/23 22:29:33;;;;;;;3.17;1.35;;;16.00;73.20;;;;;;10542793;28;20032;-52
2023/11/23 22:34:34;;;;;;;3.33;1.35;;;16.00;72.90;;;;;;10569650;28;20058;-53
2023/11/23 22:39:35;;;;;;;4.63;1.42;;;16.00;72.70;;;;;;10536214;28;20059;-54
2023/11/23 22:44:36;;;;;;;5.28;1.55;;;16.00;72.60;;;;;;10536411;28;20016;-52
2023/11/23 22:49:37;;;;;;;5.45;2.05;;;15.90;72.50;;;;;;10535828;28;20379;-52
2023/11/23 22:54:38;;;;;;;4.78;1.63;;;15.90;72.70;;;;;;10536231;28;20031;-49
2023/11/23 22:59:38;;;;;;;3.75;1.58;;;15.90;72.70;;;;;;10535654;28;20035;-53
2023/11/23 23:04:39;;;;;;;10.18;1.77;;;15.90;72.70;;;;;;10535788;28;20068;-54
2023/11/23 23:09:40;;;;;;;4.03;1.58;;;15.90;72.80;;;;;;10535065;28;20433;-54
2023/11/23 23:14:40;;;;;;;4.82;1.60;;;15.90;72.90;;;;;;10568227;28;20028;-52
2023/11/23 23:19:41;;;;;;;3.13;1.23;;;15.80;72.90;;;;;;10576891;28;20035;-52
2023/11/23 23:24:42;;;;;;;3.35;1.30;;;15.80;72.90;;;;;;10577162;28;20050;-53
2023/11/23 23:29:42;;;;;;;3.90;1.20;;;15.80;72.90;;;;;;10566983;28;20020;-54
2023/11/23 23:34:43;;;;;;;6.20;1.73;;;15.80;72.80;;;;;;10516947;28;20371;-53
2023/11/23 23:39:43;;;;;;;4.95;2.53;;;15.80;72.80;;;;;;10533918;28;20016;-51
2023/11/23 23:44:44;;;;;;;5.07;1.45;;;15.80;73.10;;;;;;10534107;28;20032;-54
2023/11/23 23:49:45;;;;;;;6.60;1.52;;;15.70;72.80;;;;;;10575505;28;20032;-53
2023/11/23 23:54:48;;;;;;;3.10;1.80;;;15.80;72.70;;;;;;10575931;28;20028;-52
2023/11/23 23:59:48;;;;;;;7.90;1.48;;;15.80;72.70;;;;;;10575577;28;20032;-52
